Time;durP1;ratioP1;P1;durP2;ratioP2;P2;SDS_P1;SDS_P2;PMS_P1;PMS_P2;Temp;Humidity;BMP_temperature;BMP_pressure;BME280_temperature;BME280_humidity;BME280_pressure;Samples;Min_cycle;Max_cycle;Signal;HPM_P1;HPM_P2
2022/08/05 00:01:14;;;;;;;5.25;3.65;;;;;;;25.46;47.52;95068.00;5003399;28;20028;-67
2022/08/05 00:03:39;;;;;;;5.78;4.07;;;;;;;25.46;47.53;95070.00;4992399;28;20029;-68
2022/08/05 00:06:05;;;;;;;5.93;3.80;;;;;;;25.42;47.91;95072.28;5003898;28;20038;-63
2022/08/05 00:08:31;;;;;;;4.75;4.00;;;;;;;25.41;47.35;95065.34;5002058;28;20037;-65
2022/08/05 00:10:57;;;;;;;7.18;3.63;;;;;;;25.39;47.64;95067.84;5003416;28;20100;-70
2022/08/05 00:13:23;;;;;;;5.35;3.88;;;;;;;25.31;47.37;95055.34;5003189;28;20046;-63
2022/08/05 00:15:49;;;;;;;5.07;4.00;;;;;;;25.31;47.39;95061.53;5003578;28;20076;-63
2022/08/05 00:18:14;;;;;;;6.22;3.75;;;;;;;25.08;47.46;95027.59;5003498;28;20057;-67
2022/08/05 00:20:40;;;;;;;6.82;4.38;;;;;;;25.16;47.73;95050.31;5003308;28;20049;-63
2022/08/05 00:23:06;;;;;;;4.97;3.90;;;;;;;25.25;47.21;95066.34;5001804;28;20575;-66
2022/08/05 00:25:32;;;;;;;5.70;3.80;;;;;;;25.20;47.66;95045.31;5003532;28;20052;-65
2022/08/05 00:27:57;;;;;;;6.10;3.95;;;;;;;25.14;48.04;95047.38;5003326;28;20022;-66
2022/08/05 00:30:23;;;;;;;6.72;4.10;;;;;;;25.18;47.81;95052.53;5003034;28;20209;-70
2022/08/05 00:32:48;;;;;;;4.68;3.72;;;;;;;24.88;48.27;95008.97;5002656;28;20041;-63
2022/08/05 00:35:14;;;;;;;5.40;4.03;;;;;;;25.09;47.75;95040.00;5003371;28;20026;-70
2022/08/05 00:37:40;;;;;;;5.10;4.07;;;;;;;25.04;48.23;95032.63;5002862;28;20552;-75
2022/08/05 00:40:05;;;;;;;6.20;4.35;;;;;;;25.15;48.36;95059.78;5003487;28;20029;-77
2022/08/05 00:42:32;;;;;;;6.78;4.10;;;;;;;24.90;48.30;95011.19;5003300;28;20006;-76
2022/08/05 00:44:58;;;;;;;6.18;3.95;;;;;;;24.96;48.35;95023.53;5003518;28;20038;-73
2022/08/05 00:47:23;;;;;;;7.18;4.35;;;;;;;25.08;48.54;95049.47;5003025;28;20100;-71
2022/08/05 00:49:49;;;;;;;5.30;4.18;;;;;;;25.06;48.39;95051.97;5019780;28;20033;-75
2022/08/05 00:52:14;;;;;;;5.68;4.28;;;;;;;24.77;48.58;95013.13;5002941;28;20041;-69
2022/08/05 00:54:40;;;;;;;6.60;3.80;;;;;;;25.00;48.92;95048.56;5003433;28;20033;-62
2022/08/05 00:57:05;;;;;;;5.57;4.28;;;;;;;24.97;48.49;95049.56;4990833;28;20038;-73
2022/08/05 00:59:31;;;;;;;5.18;3.95;;;;;;;24.95;48.73;95045.91;5002507;28;20042;-66
2022/08/05 01:01:56;;;;;;;4.43;3.92;;;;;;;24.97;48.55;95057.03;5002320;28;20414;-62
2022/08/05 01:04:21;;;;;;;6.38;4.20;;;;;;;24.95;48.73;95045.91;5002273;28;20056;-66
2022/08/05 01:06:47;;;;;;;5.53;3.70;;;;;;;24.95;48.69;95052.09;5002605;28;20018;-63
2022/08/05 01:09:13;;;;;;;7.47;4.28;;;;;;;24.88;48.80;95047.22;5002838;28;20828;-63
2022/08/05 01:11:38;;;;;;;5.45;4.60;;;;;;;24.59;48.42;95002.97;5002517;28;20119;-66
2022/08/05 01:14:16;;;;;;;5.53;4.10;;;;;;;24.88;48.77;95052.69;5001679;28;20085;-62
2022/08/05 01:16:56;;;;;;;6.38;4.00;;;;;;;24.86;49.09;95054.47;4985566;28;20047;-66
2022/08/05 01:19:21;;;;;;;5.20;4.00;;;;;;;24.84;48.92;95046.81;5002023;28;20053;-65
2022/08/05 01:22:14;;;;;;;6.80;4.30;;;;;;;24.84;48.92;95046.03;5002475;28;20026;-68
2022/08/05 01:24:51;;;;;;;6.75;4.50;;;;;;;24.80;48.97;95061.25;4992004;28;20536;-61
2022/08/05 01:27:45;;;;;;;5.28;4.10;;;;;;;24.80;49.06;95055.78;4986857;28;20050;-63
2022/08/05 01:30:11;;;;;;;4.85;4.00;;;;;;;24.40;49.22;95007.69;4997863;28;20053;-63
2022/08/05 01:32:36;;;;;;;6.57;4.35;;;;;;;24.75;49.40;95059.34;4985269;28;20049;-61
2022/08/05 01:35:05;;;;;;;5.05;3.58;;;;;;;24.66;49.27;95051.50;4993799;28;20057;-69
2022/08/05 01:37:40;;;;;;;6.03;4.80;;;;;;;24.71;49.12;95069.81;5003021;28;20036;-72
2022/08/05 01:40:06;;;;;;;4.90;4.28;;;;;;;24.69;49.38;95061.41;5014963;28;20779;-67
2022/08/05 01:42:31;;;;;;;6.55;4.00;;;;;;;24.64;49.55;95059.50;5022277;28;20071;-74
2022/08/05 01:44:58;;;;;;;5.50;3.80;;;;;;;24.66;49.44;95056.97;5024107;28;20152;-75
2022/08/05 01:47:23;;;;;;;5.40;3.97;;;;;;;24.48;49.61;95041.31;5003917;28;20049;-73
2022/08/05 01:49:49;;;;;;;6.57;3.65;;;;;;;24.42;49.62;95043.38;5014840;28;20894;-63
2022/08/05 01:52:15;;;;;;;5.78;4.05;;;;;;;24.55;49.42;95068.78;4997099;28;20061;-74
2022/08/05 01:54:45;;;;;;;5.97;4.03;;;;;;;24.37;49.48;95030.56;5002753;28;20033;-67
2022/08/05 01:57:11;;;;;;;5.75;4.18;;;;;;;24.53;49.61;95062.38;4985713;28;20042;-75
2022/08/05 01:59:38;;;;;;;5.00;3.78;;;;;;;24.44;49.78;95051.81;4987366;28;20424;-69
2022/08/05 02:02:03;;;;;;;6.53;4.30;;;;;;;24.52;49.77;95071.81;5004052;28;20023;-66
2022/08/05 02:04:29;;;;;;;5.00;3.75;;;;;;;24.49;49.67;95064.66;5004611;28;20496;-62
2022/08/05 02:06:55;;;;;;;6.80;4.10;;;;;;;24.31;49.75;95037.31;4987071;28;20034;-63
2022/08/05 02:09:20;;;;;;;6.30;4.20;;;;;;;24.21;49.83;95022.53;4999072;28;20042;-71
2022/08/05 02:12:08;;;;;;;6.07;4.32;;;;;;;24.44;49.76;95058.00;5004094;28;20049;-63
2022/08/05 02:14:44;;;;;;;4.80;3.88;;;;;;;24.41;49.70;95066.50;5005649;28;20299;-62
2022/08/05 02:17:34;;;;;;;5.10;4.05;;;;;;;24.40;49.79;95067.75;5003786;28;20238;-63
2022/08/05 02:20:02;;;;;;;5.80;4.15;;;;;;;24.34;49.73;95069.78;5003812;28;20038;-68
2022/08/05 02:22:29;;;;;;;6.30;4.38;;;;;;;24.32;49.57;95061.34;5020288;28;20473;-64
2022/08/05 02:25:01;;;;;;;5.45;4.10;;;;;;;24.28;50.10;95055.44;5005636;28;20772;-73
2022/08/05 02:27:26;;;;;;;5.55;4.10;;;;;;;24.28;49.80;95055.44;5003841;28;20463;-68
2022/08/05 02:29:52;;;;;;;6.25;4.30;;;;;;;24.29;50.04;95062.38;4988575;28;20042;-66
2022/08/05 02:32:19;;;;;;;5.65;4.00;;;;;;;24.29;49.95;95062.38;4982323;28;20416;-68
2022/08/05 02:34:44;;;;;;;6.43;4.13;;;;;;;24.28;49.92;95055.44;5007967;28;20112;-66
2022/08/05 02:37:10;;;;;;;6.30;4.32;;;;;;;23.93;50.00;95013.91;5006408;28;20719;-63
2022/08/05 02:39:37;;;;;;;5.15;3.90;;;;;;;24.10;50.27;95034.31;5008294;28;20040;-62
2022/08/05 02:42:03;;;;;;;6.80;4.00;;;;;;;24.24;50.35;95059.72;5010593;28;20092;-66
2022/08/05 02:44:33;;;;;;;5.75;4.30;;;;;;;24.08;49.76;95036.81;5023846;28;20560;-61
2022/08/05 02:46:58;;;;;;;5.90;4.55;;;;;;;24.19;49.83;95058.53;5006978;28;20025;-62
2022/08/05 02:49:25;;;;;;;6.80;4.50;;;;;;;24.12;49.74;95037.25;5023843;28;20026;-62
2022/08/05 02:51:50;;;;;;;5.57;3.92;;;;;;;24.19;50.17;95053.06;5007906;28;20025;-61
2022/08/05 02:54:16;;;;;;;5.78;4.40;;;;;;;24.00;50.30;95025.00;4987409;28;20049;-61
2022/08/05 02:56:41;;;;;;;7.38;4.63;;;;;;;24.15;49.81;95052.59;5023629;28;20080;-74
2022/08/05 02:59:07;;;;;;;4.90;4.03;;;;;;;23.91;50.07;95022.59;5007658;28;20500;-65
2022/08/05 03:01:32;;;;;;;4.20;3.80;;;;;;;24.09;50.11;95049.19;5006420;28;20556;-68
2022/08/05 03:04:00;;;;;;;5.55;4.03;;;;;;;23.86;49.97;95015.22;5007895;28;20025;-65
2022/08/05 03:06:25;;;;;;;6.20;4.35;;;;;;;24.11;50.27;95051.41;5006349;28;20073;-69
2022/08/05 03:08:51;;;;;;;5.15;3.78;;;;;;;24.09;50.16;95054.66;5024443;28;20710;-63
2022/08/05 03:11:18;;;;;;;6.28;3.97;;;;;;;23.88;50.29;95034.56;5007040;28;20092;-63
2022/08/05 03:13:43;;;;;;;7.07;3.92;;;;;;;24.04;50.14;95058.19;5023286;28;20048;-64
2022/08/05 03:16:09;;;;;;;5.25;4.22;;;;;;;24.00;50.00;95055.00;5023045;28;20049;-74
2022/08/05 03:18:34;;;;;;;5.18;4.18;;;;;;;23.81;50.04;95028.19;5024504;28;20026;-75
2022/08/05 03:21:00;;;;;;;4.68;4.18;;;;;;;23.88;50.25;95045.47;5024718;28;20751;-69
2022/08/05 03:23:25;;;;;;;6.93;4.38;;;;;;;23.77;49.79;95027.75;5023697;28;20057;-63
2022/08/05 03:25:51;;;;;;;5.43;4.20;;;;;;;23.99;50.25;95067.19;5023167;28;20080;-66
2022/08/05 03:28:16;;;;;;;6.55;3.95;;;;;;;24.00;50.39;95063.19;5024178;28;20508;-64
2022/08/05 03:30:42;;;;;;;5.75;4.38;;;;;;;23.98;50.35;95065.69;5005395;28;20479;-69
2022/08/05 03:33:07;;;;;;;5.80;4.22;;;;;;;23.97;50.46;95064.19;4989717;28;20587;-63
2022/08/05 03:35:33;;;;;;;5.30;4.30;;;;;;;23.93;50.32;95061.03;5003112;28;20038;-61
2022/08/05 03:37:58;;;;;;;6.30;4.22;;;;;;;23.84;50.02;95048.97;5011571;28;20550;-66
2022/08/05 03:40:24;;;;;;;5.90;4.68;;;;;;;23.93;50.01;95055.59;5024273;28;20562;-62
2022/08/05 03:42:50;;;;;;;5.90;4.05;;;;;;;23.93;50.40;95066.50;5021684;28;20428;-66
2022/08/05 03:45:15;;;;;;;5.20;4.22;;;;;;;23.88;50.49;95059.13;5010010;28;20143;-61
2022/08/05 03:47:41;;;;;;;6.15;4.05;;;;;;;23.84;50.65;95049.75;5003382;28;20037;-62
2022/08/05 03:50:06;;;;;;;4.50;3.78;;;;;;;23.76;50.17;95032.44;5012361;28;20033;-61
2022/08/05 03:52:34;;;;;;;7.38;4.20;;;;;;;23.68;50.42;95025.34;5010664;28;20045;-64
2022/08/05 03:55:01;;;;;;;5.45;4.22;;;;;;;23.88;50.72;95056.38;5002704;28;20120;-65
2022/08/05 03:57:29;;;;;;;4.60;3.95;;;;;;;23.89;50.54;95057.84;5014787;28;20060;-62
2022/08/05 04:00:13;;;;;;;5.22;4.18;;;;;;;23.87;50.39;95060.34;5016911;28;20050;-62
2022/08/05 04:02:39;;;;;;;6.25;4.10;;;;;;;23.62;50.61;95030.09;5009263;28;20045;-62
2022/08/05 04:05:06;;;;;;;5.82;4.18;;;;;;;23.84;51.24;95062.63;4985032;28;20048;-69
2022/08/05 04:07:32;;;;;;;7.00;4.22;;;;;;;23.81;50.61;95066.38;5013430;28;20088;-69
2022/08/05 04:09:57;;;;;;;5.63;4.60;;;;;;;23.85;50.94;95061.38;5033013;28;20025;-64
2022/08/05 04:12:23;;;;;;;6.25;4.15;;;;;;;23.79;50.64;95058.69;5028526;28;20530;-68
2022/08/05 04:14:48;;;;;;;6.78;4.40;;;;;;;23.56;50.69;95023.97;4995270;28;20050;-66
2022/08/05 04:17:14;;;;;;;6.75;3.92;;;;;;;23.72;51.37;95058.50;4988103;28;20052;-65
2022/08/05 04:19:46;;;;;;;5.15;4.10;;;;;;;23.72;50.86;95053.06;5007760;28;20056;-63
2022/08/05 04:22:12;;;;;;;4.95;3.85;;;;;;;23.82;51.50;95067.84;5007035;28;20045;-65
2022/08/05 04:24:44;;;;;;;6.57;4.22;;;;;;;23.82;51.28;95065.13;4996029;28;20026;-67
2022/08/05 04:27:09;;;;;;;7.78;4.18;;;;;;;23.79;51.07;95063.41;5022110;28;20207;-64
2022/08/05 04:29:35;;;;;;;6.85;4.20;;;;;;;23.74;51.05;95050.59;5011826;28;20402;-70
2022/08/05 04:32:00;;;;;;;4.85;4.00;;;;;;;23.74;51.61;95045.13;4991596;28;20090;-75
2022/08/05 04:34:26;;;;;;;5.18;4.60;;;;;;;23.82;51.44;95056.94;4995527;28;20038;-62
2022/08/05 04:36:51;;;;;;;5.20;4.07;;;;;;;23.86;51.18;95058.88;5000712;28;20493;-68
2022/08/05 04:39:17;;;;;;;7.53;4.22;;;;;;;23.83;50.97;95055.72;4994877;28;20435;-63
2022/08/05 04:41:43;;;;;;;6.25;4.68;;;;;;;23.88;50.80;95056.38;4986361;28;20042;-63
2022/08/05 04:44:08;;;;;;;6.70;4.45;;;;;;;23.91;50.90;95060.06;4997739;28;20108;-70
2022/08/05 04:46:34;;;;;;;5.47;4.15;;;;;;;23.92;50.71;95056.81;5002661;28;20042;-66
2022/08/05 04:48:59;;;;;;;9.05;4.90;;;;;;;23.86;50.93;95051.97;5004430;28;20034;-67
2022/08/05 04:51:25;;;;;;;5.63;4.35;;;;;;;23.77;51.32;95027.75;4996575;28;20026;-66
2022/08/05 04:53:50;;;;;;;6.57;4.43;;;;;;;23.94;50.93;95043.41;5005125;28;20570;-65
2022/08/05 04:56:16;;;;;;;5.75;4.20;;;;;;;23.98;50.92;95057.50;4984193;28;20636;-65
2022/08/05 04:58:41;;;;;;;7.82;4.50;;;;;;;23.92;49.90;95043.19;4987467;28;20827;-64
2022/08/05 05:01:07;;;;;;;6.97;4.88;;;;;;;24.08;50.03;95057.88;5002444;28;20030;-65
2022/08/05 05:03:32;;;;;;;6.85;4.63;;;;;;;24.10;49.81;95056.13;5003518;28;20034;-61
2022/08/05 05:05:58;;;;;;;6.82;4.32;;;;;;;24.14;49.26;95045.69;4998644;28;20042;-59
2022/08/05 05:08:23;;;;;;;7.50;4.28;;;;;;;24.33;49.41;95053.94;5000615;28;20046;-60
2022/08/05 05:10:49;;;;;;;9.20;4.85;;;;;;;24.34;48.51;95042.50;5002072;28;20192;-62
2022/08/05 05:13:15;;;;;;;5.32;4.32;;;;;;;24.49;48.39;95042.81;5001927;28;20489;-63
2022/08/05 05:15:41;;;;;;;7.05;4.95;;;;;;;24.73;47.78;95050.94;5002659;28;20033;-59
2022/08/05 05:18:07;;;;;;;6.93;4.75;;;;;;;24.84;47.55;95041.34;5001600;28;20034;-61
2022/08/05 05:20:33;;;;;;;7.85;4.80;;;;;;;24.89;47.28;95026.84;5002074;28;20034;-64
2022/08/05 05:23:00;;;;;;;7.57;4.93;;;;;;;25.21;46.92;95046.75;5001456;28;20044;-57
2022/08/05 05:25:26;;;;;;;7.28;4.78;;;;;;;25.29;46.40;95042.19;5002348;28;20030;-64
2022/08/05 05:27:51;;;;;;;9.85;4.70;;;;;;;25.49;45.70;95055.28;4999646;28;20033;-60
2022/08/05 05:30:17;;;;;;;6.03;4.25;;;;;;;25.49;45.61;95022.47;5001810;28;20524;-61
2022/08/05 05:32:42;;;;;;;8.73;5.05;;;;;;;25.78;45.56;95048.84;5002343;28;20037;-69
2022/08/05 05:35:08;;;;;;;8.02;4.55;;;;;;;25.58;45.19;94997.44;5005727;28;20041;-61
2022/08/05 05:37:34;;;;;;;8.65;4.82;;;;;;;26.05;44.62;95049.09;5005143;28;20045;-63
2022/08/05 05:39:59;;;;;;;10.65;4.82;;;;;;;26.22;44.29;95046.75;5006750;28;20076;-60
2022/08/05 05:42:24;;;;;;;9.48;5.05;;;;;;;26.21;44.14;95028.84;5005165;28;20046;-61
2022/08/05 05:44:50;;;;;;;7.00;4.78;;;;;;;26.47;44.11;95045.28;5006049;28;20037;-63
2022/08/05 05:47:15;;;;;;;9.07;4.70;;;;;;;26.51;43.76;95037.50;5004115;28;20048;-62
2022/08/05 05:49:41;;;;;;;8.18;5.35;;;;;;;26.71;43.29;95047.78;5005252;28;20096;-59
2022/08/05 05:52:07;;;;;;;9.05;4.60;;;;;;;26.61;43.14;95019.38;5003943;28;20414;-62
2022/08/05 05:54:32;;;;;;;6.50;4.57;;;;;;;26.88;43.11;95038.66;5003821;28;20025;-60
2022/08/05 05:56:58;;;;;;;6.97;4.75;;;;;;;26.80;43.05;95015.94;5004629;28;20045;-61
2022/08/05 05:59:23;;;;;;;8.90;4.75;;;;;;;27.07;42.99;95050.25;5003181;28;20048;-68
2022/08/05 06:01:49;;;;;;;6.10;5.00;;;;;;;27.21;42.64;95048.91;5004273;28;20046;-59
2022/08/05 06:04:14;;;;;;;7.20;4.93;;;;;;;27.13;42.51;95037.16;5004842;28;20033;-59
2022/08/05 06:06:41;;;;;;;11.35;4.65;;;;;;;27.29;43.00;95044.22;5005387;28;20069;-59
2022/08/05 06:09:06;;;;;;;7.38;4.93;;;;;;;27.24;42.27;95025.19;5005436;28;20038;-61
2022/08/05 06:11:32;;;;;;;8.13;4.88;;;;;;;27.44;42.21;95033.41;5003167;28;20543;-60
2022/08/05 06:13:58;;;;;;;7.50;5.25;;;;;;;27.64;41.64;95043.66;5004830;28;20049;-60
2022/08/05 06:16:24;;;;;;;8.75;5.07;;;;;;;27.71;41.40;95051.94;5003953;28;20038;-60
2022/08/05 06:18:49;;;;;;;5.97;4.95;;;;;;;27.76;41.62;95060.06;5005203;28;20096;-60
2022/08/05 06:21:15;;;;;;;6.85;4.82;;;;;;;27.69;41.27;95032.53;5016103;28;20041;-62
2022/08/05 06:23:40;;;;;;;8.15;4.90;;;;;;;27.90;40.98;95042.22;4990025;28;20038;-63
2022/08/05 06:26:06;;;;;;;9.65;4.88;;;;;;;27.88;40.98;95039.28;4990172;28;20857;-63
2022/08/05 06:28:31;;;;;;;8.02;5.15;;;;;;;27.81;41.15;95028.97;4998400;28;20030;-64
2022/08/05 06:30:57;;;;;;;6.45;5.75;;;;;;;27.99;40.91;95039.00;4992741;28;20062;-63
2022/08/05 06:33:22;;;;;;;11.48;5.57;;;;;;;28.08;40.40;95057.72;4985773;28;20041;-63
2022/08/05 06:35:48;;;;;;;7.70;5.43;;;;;;;28.04;40.89;95029.13;4983014;28;20035;-66
2022/08/05 06:38:13;;;;;;;6.88;5.07;;;;;;;28.18;40.57;95047.75;4985901;28;20816;-62
2022/08/05 06:40:41;;;;;;;10.43;5.07;;;;;;;28.29;40.12;95050.19;4992374;28;20047;-61
2022/08/05 06:43:06;;;;;;;8.38;4.88;;;;;;;28.23;40.50;95046.13;4993612;28;20022;-66
2022/08/05 06:45:32;;;;;;;6.45;5.20;;;;;;;28.18;40.57;95034.03;4992523;28;20654;-63
2022/08/05 06:47:57;;;;;;;8.65;5.30;;;;;;;28.43;39.82;95055.06;4988830;28;20041;-66
2022/08/05 06:50:23;;;;;;;7.85;5.00;;;;;;;28.30;40.23;95035.19;4998222;28;20030;-64
2022/08/05 06:52:49;;;;;;;9.13;5.30;;;;;;;28.48;40.04;95047.94;4996482;28;20505;-63
2022/08/05 06:55:16;;;;;;;7.85;4.95;;;;;;;28.47;39.66;95040.94;5001460;28;20037;-58
2022/08/05 06:57:41;;;;;;;7.82;5.15;;;;;;;28.35;39.99;95017.81;4992080;28;20077;-62
2022/08/05 07:00:07;;;;;;;6.88;5.25;;;;;;;28.37;39.58;95018.00;4983752;28;20042;-61
2022/08/05 07:02:40;;;;;;;7.40;5.00;;;;;;;28.38;39.62;95008.50;4989380;28;20168;-60
2022/08/05 07:05:06;;;;;;;7.38;4.70;;;;;;;28.67;39.59;95040.16;4986293;28;20046;-64
2022/08/05 07:07:32;;;;;;;7.78;4.70;;;;;;;28.58;39.29;95026.88;4988017;28;20592;-65
2022/08/05 07:09:57;;;;;;;9.57;4.93;;;;;;;28.74;39.97;95046.44;4988784;28;20030;-59
2022/08/05 07:17:51;;;;;;;8.00;4.45;;;;;;;28.87;39.09;95038.03;4988908;28;20097;-66
2022/08/05 07:20:16;;;;;;;8.23;5.10;;;;;;;28.87;39.40;95029.78;4985904;28;20049;-63
2022/08/05 07:22:42;;;;;;;8.95;4.68;;;;;;;29.04;39.36;95052.00;4988175;28;20038;-59
2022/08/05 07:25:07;;;;;;;7.90;4.93;;;;;;;28.96;39.51;95034.03;4990308;28;20035;-61
2022/08/05 07:27:33;;;;;;;7.28;5.15;;;;;;;28.86;39.74;95008.34;4993380;28;20410;-65
2022/08/05 07:29:58;;;;;;;10.82;4.53;;;;;;;29.22;39.37;95045.47;4990892;28;20571;-64
2022/08/05 07:32:24;;;;;;;10.43;5.70;;;;;;;29.13;39.20;95020.50;4984203;28;20042;-65
2022/08/05 07:34:49;;;;;;;7.50;4.13;;;;;;;29.05;39.25;95009.47;4985944;28;20053;-60
2022/08/05 07:37:14;;;;;;;9.55;5.10;;;;;;;29.37;38.53;95045.50;5000389;28;20027;-62
2022/08/05 07:39:40;;;;;;;6.82;4.40;;;;;;;29.35;38.78;95020.56;4986029;28;20038;-63
2022/08/05 07:42:05;;;;;;;7.97;4.05;;;;;;;29.45;38.67;95033.25;4986448;28;20520;-63
2022/08/05 07:44:31;;;;;;;8.13;4.57;;;;;;;29.60;38.79;95036.00;4984460;28;20236;-66
2022/08/05 07:46:57;;;;;;;5.95;3.90;;;;;;;29.66;38.80;95038.59;5001384;28;20046;-62
2022/08/05 07:49:22;;;;;;;7.32;4.32;;;;;;;29.67;38.53;95019.50;4991471;28;20125;-60
2022/08/05 07:51:48;;;;;;;7.38;4.55;;;;;;;29.94;38.20;95034.38;5002662;28;20046;-64
2022/08/05 07:54:13;;;;;;;7.13;4.32;;;;;;;29.78;38.31;95008.09;5002773;28;20045;-66
2022/08/05 07:56:39;;;;;;;8.05;4.40;;;;;;;30.09;38.15;95031.63;5003485;28;20472;-68
2022/08/05 07:59:05;;;;;;;5.30;3.80;;;;;;;30.01;37.82;95019.84;4991063;28;20042;-69
2022/08/05 08:01:30;;;;;;;9.07;4.78;;;;;;;30.17;38.00;95037.84;4987474;28;20081;-62
2022/08/05 08:03:55;;;;;;;4.78;4.03;;;;;;;30.10;37.50;95010.28;4986140;28;20025;-62
2022/08/05 08:06:22;;;;;;;5.72;4.00;;;;;;;30.29;37.72;95034.13;4991911;28;20596;-62
2022/08/05 08:08:47;;;;;;;8.75;4.60;;;;;;;30.14;37.29;95008.63;4984240;28;20056;-63
2022/08/05 08:11:14;;;;;;;7.00;4.20;;;;;;;30.36;37.27;95021.66;5001235;28;20041;-63
2022/08/05 08:13:40;;;;;;;5.78;3.90;;;;;;;30.00;37.48;94996.38;5002016;28;20037;-64
2022/08/05 08:16:05;;;;;;;6.70;4.25;;;;;;;30.38;36.75;95024.59;5000536;28;20520;-63
2022/08/05 08:18:31;;;;;;;6.35;3.92;;;;;;;30.21;37.47;95005.13;5002583;28;20038;-63
2022/08/05 08:20:56;;;;;;;6.55;4.20;;;;;;;30.28;37.70;95015.41;5002048;28;20037;-63
2022/08/05 08:23:22;;;;;;;6.18;4.30;;;;;;;30.31;37.79;95033.56;5002720;28;20034;-62
2022/08/05 08:25:47;;;;;;;7.75;4.25;;;;;;;30.15;36.26;94985.31;5003677;28;20084;-63
2022/08/05 08:28:13;;;;;;;5.10;3.95;;;;;;;30.50;37.03;95028.41;5003889;28;20034;-63
2022/08/05 08:30:38;;;;;;;6.50;4.00;;;;;;;30.48;37.08;95022.72;5001261;28;20045;-63
2022/08/05 08:33:08;;;;;;;4.68;3.72;;;;;;;30.46;37.18;95030.81;4984138;28;20428;-63
2022/08/05 08:35:34;;;;;;;;;;;;;;;30.43;37.43;95023.66;4994666;28;20069;-63
2022/08/05 08:37:59;;;;;;;7.75;3.80;;;;;;;30.24;37.43;94993.72;5002179;28;20659;-63
2022/08/05 08:40:25;;;;;;;5.28;3.95;;;;;;;30.35;37.19;95009.16;5001437;28;20037;-63
2022/08/05 08:42:50;;;;;;;6.82;3.75;;;;;;;30.31;37.14;95000.50;5001219;28;20049;-63
2022/08/05 08:45:16;;;;;;;6.68;3.85;;;;;;;30.39;37.17;95012.28;5016954;28;20153;-63
2022/08/05 08:47:42;;;;;;;6.57;4.05;;;;;;;30.46;37.26;95020.50;5000165;28;20121;-63
2022/08/05 08:50:08;;;;;;;4.57;3.13;;;;;;;30.27;36.91;94991.91;5001274;28;20409;-63
2022/08/05 08:52:34;;;;;;;5.20;3.67;;;;;;;30.37;36.14;95001.81;4991247;28;20531;-63
2022/08/05 08:54:59;;;;;;;5.85;3.33;;;;;;;30.50;36.57;95020.16;5015435;28;20030;-63
2022/08/05 08:57:25;;;;;;;5.93;3.60;;;;;;;30.43;36.77;95004.34;4992513;28;20398;-63
2022/08/05 08:59:50;;;;;;;3.92;3.40;;;;;;;30.32;36.50;94985.44;4996819;28;20057;-62
2022/08/05 09:02:18;;;;;;;3.95;3.20;;;;;;;30.32;36.69;94983.41;4979960;28;20112;-58
2022/08/05 09:04:43;;;;;;;3.88;3.28;;;;;;;30.59;36.06;95011.28;4983458;28;20137;-63
2022/08/05 09:07:09;;;;;;;4.68;3.40;;;;;;;30.63;37.08;95017.16;4982536;28;20485;-64
2022/08/05 09:09:34;;;;;;;4.60;3.28;;;;;;;30.65;36.75;95005.00;4990153;28;20092;-62
2022/08/05 09:12:04;;;;;;;6.95;3.55;;;;;;;30.58;36.36;94982.25;5000433;28;20034;-67
2022/08/05 09:14:30;;;;;;;;;;;;;;;30.71;36.20;95002.78;4999721;28;20783;-64
2022/08/05 09:16:55;;;;;;;6.18;3.38;;;;;;;30.65;36.29;94968.44;5006534;28;19917;-64
2022/08/05 09:19:21;;;;;;;3.90;2.92;;;;;;;30.82;36.60;94991.34;5005997;28;20029;-62
2022/08/05 09:21:47;;;;;;;4.88;2.90;;;;;;;30.75;35.96;94975.56;5006042;28;20049;-63
2022/08/05 09:24:12;;;;;;;4.50;3.20;;;;;;;30.85;35.85;94979.19;5006584;28;20026;-64
2022/08/05 09:26:38;;;;;;;4.65;3.00;;;;;;;30.84;36.26;94977.72;5006250;28;20049;-63
2022/08/05 09:29:05;;;;;;;7.22;3.53;;;;;;;30.98;35.17;94976.19;5004517;28;20562;-64
2022/08/05 09:31:31;;;;;;;5.38;3.10;;;;;;;31.09;35.16;94975.00;5005613;28;20080;-63
2022/08/05 09:33:57;;;;;;;4.35;3.15;;;;;;;30.95;35.17;94960.03;5006354;28;20034;-62
2022/08/05 09:36:23;;;;;;;3.97;3.25;;;;;;;30.88;35.08;94939.47;5005314;28;20037;-62
2022/08/05 09:38:59;;;;;;;5.75;2.97;;;;;;;31.11;35.37;94956.63;5005608;28;20042;-62
2022/08/05 09:41:24;;;;;;;3.63;2.63;;;;;;;31.12;33.87;94947.06;5019641;28;20456;-68
2022/08/05 09:43:50;;;;;;;5.47;2.70;;;;;;;30.94;34.68;94926.19;5004867;28;20042;-65
2022/08/05 09:46:45;;;;;;;3.28;2.53;;;;;;;31.24;35.07;94961.84;5020742;28;20032;-68
2022/08/05 09:49:21;;;;;;;3.63;3.00;;;;;;;31.16;35.07;94955.66;4990947;28;20045;-64
2022/08/05 09:51:47;;;;;;;4.78;2.80;;;;;;;31.25;34.51;94955.03;5025014;28;20049;-63
2022/08/05 09:54:13;;;;;;;3.15;2.83;;;;;;;31.19;34.67;94935.22;5025239;28;20683;-62
2022/08/05 09:56:39;;;;;;;3.50;2.58;;;;;;;31.38;34.87;94957.53;5019974;28;20077;-62
2022/08/05 09:59:11;;;;;;;3.50;2.67;;;;;;;31.26;34.49;94959.28;4991402;28;20045;-68
2022/08/05 10:01:40;;;;;;;4.45;2.80;;;;;;;31.13;34.93;94948.50;5004884;28;20041;-65
2022/08/05 10:04:11;;;;;;;;;;;;;;;30.55;36.57;94955.78;5006162;28;20029;-60
2022/08/05 10:06:39;;;;;;;5.50;2.80;;;;;;;30.54;37.17;94944.03;5021906;28;19924;-61
2022/08/05 10:09:17;;;;;;;4.07;2.70;;;;;;;30.36;37.24;94936.22;5022550;28;20448;-74
2022/08/05 10:11:43;;;;;;;3.58;2.65;;;;;;;30.13;37.44;94913.50;5002912;28;20132;-66
2022/08/05 10:14:28;;;;;;;3.70;2.80;;;;;;;30.10;38.18;94939.41;5022208;28;20045;-65
2022/08/05 10:16:57;;;;;;;4.43;3.13;;;;;;;30.06;37.74;94936.31;5022252;28;20037;-63
2022/08/05 10:19:23;;;;;;;3.83;2.97;;;;;;;29.95;38.30;94939.44;5022952;28;20128;-64
2022/08/05 10:21:49;;;;;;;4.78;2.85;;;;;;;29.71;38.53;94926.22;5004580;28;20037;-62
2022/08/05 10:24:19;;;;;;;3.78;2.80;;;;;;;29.29;38.80;94890.69;5022812;28;20056;-63
2022/08/05 10:26:44;;;;;;;;;;;;;;;29.33;39.34;94935.09;5023290;28;20033;-61
2022/08/05 10:29:10;;;;;;;3.38;2.67;;;;;;;29.35;39.27;94932.53;5025603;28;19944;-62
2022/08/05 10:31:37;;;;;;;3.17;2.83;;;;;;;29.12;39.38;94904.25;5025171;28;20009;-67
2022/08/05 10:34:03;;;;;;;3.33;2.80;;;;;;;29.25;40.09;94934.34;5030273;28;20120;-66
2022/08/05 10:36:28;;;;;;;3.15;2.80;;;;;;;28.88;40.09;94902.03;5027043;28;20091;-62
2022/08/05 10:38:58;;;;;;;3.25;2.53;;;;;;;29.03;40.12;94932.31;5029361;28;20049;-62
2022/08/05 10:41:29;;;;;;;3.53;2.80;;;;;;;28.89;40.66;94925.50;5011367;28;20176;-68
2022/08/05 10:43:57;;;;;;;2.83;2.20;;;;;;;28.88;40.94;94913.03;5027397;28;20072;-65
2022/08/05 10:46:22;;;;;;;3.15;2.72;;;;;;;28.65;41.01;94894.28;5005418;28;20503;-62
2022/08/05 10:48:49;;;;;;;4.25;2.80;;;;;;;28.66;40.30;94896.47;5006960;28;20039;-61
2022/08/05 10:51:18;;;;;;;3.78;2.65;;;;;;;28.45;41.00;94886.91;5013948;28;20045;-63
2022/08/05 10:53:52;;;;;;;3.85;2.70;;;;;;;28.48;41.57;94907.78;4999467;28;20045;-68
2022/08/05 10:56:25;;;;;;;3.53;2.45;;;;;;;28.49;41.31;94917.50;5006884;28;20033;-67
2022/08/05 10:58:57;;;;;;;3.53;2.75;;;;;;;28.42;42.00;94916.19;4999362;28;20520;-72
2022/08/05 11:01:36;;;;;;;3.92;2.70;;;;;;;28.37;41.80;94908.09;5001565;28;20036;-65
2022/08/05 11:04:16;;;;;;;3.65;2.92;;;;;;;28.23;41.46;94892.31;5001654;28;20050;-73
2022/08/05 11:06:59;;;;;;;3.28;2.70;;;;;;;28.20;42.07;94905.13;4992835;28;20056;-66
2022/08/05 11:09:26;;;;;;;3.28;2.90;;;;;;;28.29;42.00;94901.88;5008851;28;20286;-66
2022/08/05 11:11:52;;;;;;;3.08;2.58;;;;;;;28.22;42.11;94908.09;5002032;28;20041;-66
2022/08/05 11:14:25;;;;;;;3.90;2.90;;;;;;;28.01;41.85;94888.19;4983152;28;20173;-69
2022/08/05 11:17:25;;;;;;;5.45;3.00;;;;;;;28.07;42.18;94897.00;5001716;28;20063;-71
2022/08/05 11:19:52;;;;;;;4.40;2.60;;;;;;;28.11;42.33;94894.66;5018541;28;20189;-66
2022/08/05 11:22:36;;;;;;;2.92;2.50;;;;;;;27.97;42.70;94898.78;4999833;28;20166;-69
2022/08/05 11:25:31;;;;;;;3.17;2.88;;;;;;;27.94;42.80;94888.88;5003910;28;20106;-61
2022/08/05 11:28:16;;;;;;;3.13;2.50;;;;;;;27.94;42.17;94894.38;4999725;28;20902;-70
2022/08/05 11:30:57;;;;;;;3.08;2.53;;;;;;;27.91;42.34;94900.94;5021689;28;20043;-64
2022/08/05 11:33:29;;;;;;;3.65;2.90;;;;;;;27.88;42.20;94888.31;5005382;28;20042;-66
2022/08/05 11:35:58;;;;;;;3.95;2.83;;;;;;;27.71;42.85;94850.88;5010330;28;20641;-66
2022/08/05 11:38:42;;;;;;;3.70;2.60;;;;;;;27.90;42.80;94888.50;5013601;28;20053;-62
2022/08/05 11:41:20;;;;;;;3.70;2.60;;;;;;;27.83;42.31;94888.44;5011726;28;20034;-74